To NAV CANADA Home Page Login to a new session Search on AWWS site Feedback and Comments Disclaimer Vers la page française équivalente Tips FAQ What's new on the site To the Forecasts and Observations / NOTAM section To "File a Flight Plan" website Publications and other links Update of the User's profile FIC Telephone Numbers My Weather Data Folder Route Weather Data Regional Weather Data Local Weather Data To the Forecasts and Observations / NOTAM section
Request Generated 05/24/2015 at 02:55:47 UTC . Weather information available at that time is displayed.

METAR/TAF

LOURDES-DE-BLANC-SABLON/QC    

METAR CYBX 240200Z 22008KT 1/2SM -RA FG OVC002 03/03 A2968 RMK FG7ST1
VIS SW 2 SLP054=
METAR CYBX 240100Z 24004KT 1/8SM -RA FG VV001 03/02 A2969 RMK FG8
SLP056=
METAR CYBX 240000Z 24005KT 1/8SM -RA FG VV001 03/02 A2969 RMK FG8
SLP055=

TAF CYBX 240142Z 2402/2414 23006KT 1/2SM -RA FG VV001 TEMPO 2402/2412
2SM -RA BR SCT002 OVC004
BECMG 2404/2406 VRB03KT
FM241200 27010KT P6SM BKN015
RMK NXT FCST BY 240800Z=
Your time UTC time
Weather data provided by Environment Canada and NAV CANADA